sim
Sign-in with your pilot id or email,
or register
Callsign
Passwort

Schedule Details

Flight Number: OEF9061
Departure: Boston Logan International Airport (KBOS) at 05:00
Arrival: Munich Airport (EDDM) at 11:40

Weather Information
Getting current METAR information for KBOS 202054Z 08013KT 10SM FEW060 13/02 A3053 RMK AO2 SLP338 T01330017 55004
Getting current METAR information for EDDM 202050Z 00000KT CAVOK 11/10 Q1016 NOSIG

Schedule Frequency

Route Map